createdAt,value
2022-09-03T00:00:56.820Z,19.43
2022-09-03T00:03:33.530Z,19.42
2022-09-03T00:06:12.315Z,19.40
2022-09-03T00:08:50.231Z,19.36
2022-09-03T00:11:23.916Z,19.35
2022-09-03T00:13:59.129Z,19.34
2022-09-03T00:16:36.478Z,19.30
2022-09-03T00:19:06.287Z,19.29
2022-09-03T00:21:42.564Z,19.27
2022-09-03T00:24:16.356Z,19.25
2022-09-03T00:26:49.802Z,19.22
2022-09-03T00:29:22.204Z,19.21
2022-09-03T00:31:55.070Z,19.16
2022-09-03T00:34:30.712Z,19.15
2022-09-03T00:36:59.460Z,19.14
2022-09-03T00:39:29.922Z,19.12
2022-09-03T00:42:23.633Z,19.09
2022-09-03T00:45:12.318Z,19.07
2022-09-03T00:47:58.389Z,19.04
2022-09-03T00:50:42.738Z,19.03
2022-09-03T00:53:19.595Z,19.02
2022-09-03T00:55:59.476Z,19.04
2022-09-03T00:58:55.545Z,19.00
2022-09-03T01:01:33.811Z,19.01
2022-09-03T01:04:23.237Z,18.98
2022-09-03T01:07:03.504Z,18.94
2022-09-03T01:09:49.136Z,18.91
2022-09-03T01:12:33.297Z,18.92
2022-09-03T01:15:10.437Z,18.89
2022-09-03T01:17:56.008Z,18.88
2022-09-03T01:20:47.102Z,18.89
2022-09-03T01:24:00.711Z,18.87
2022-09-03T01:27:01.493Z,18.85
2022-09-03T01:29:39.835Z,18.85
2022-09-03T01:32:18.042Z,18.84
2022-09-03T01:34:58.473Z,18.84
2022-09-03T01:37:38.242Z,18.80
2022-09-03T01:40:19.123Z,18.80
2022-09-03T01:43:05.494Z,18.75
2022-09-03T01:45:51.203Z,18.77
2022-09-03T01:48:43.094Z,18.76
2022-09-03T01:51:23.514Z,18.75
2022-09-03T01:54:25.685Z,18.73
2022-09-03T01:57:36.982Z,18.71
2022-09-03T02:00:11.539Z,18.71
2022-09-03T02:02:47.763Z,18.69
2022-09-03T02:05:20.586Z,18.68
2022-09-03T02:07:52.921Z,18.66
2022-09-03T02:10:27.933Z,18.65
2022-09-03T02:13:02.518Z,18.64
2022-09-03T02:15:34.526Z,18.62
2022-09-03T02:18:08.880Z,18.62
2022-09-03T02:20:39.157Z,18.60
2022-09-03T02:23:07.808Z,18.57
2022-09-03T02:25:40.277Z,18.57
2022-09-03T02:28:27.936Z,18.55
2022-09-03T02:30:56.965Z,18.54
2022-09-03T02:33:27.222Z,18.53
2022-09-03T02:35:56.244Z,18.53
2022-09-03T02:38:28.373Z,18.52
2022-09-03T02:40:57.039Z,18.50
2022-09-03T02:43:33.492Z,18.50
2022-09-03T02:46:06.368Z,18.48
2022-09-03T02:48:36.860Z,18.45
2022-09-03T02:51:13.567Z,18.42
2022-09-03T02:53:43.301Z,18.40
2022-09-03T02:56:12.959Z,18.37
2022-09-03T02:58:41.328Z,18.34
2022-09-03T03:01:09.851Z,18.31
2022-09-03T03:03:39.513Z,18.30
2022-09-03T03:06:08.422Z,18.26
2022-09-03T03:08:36.805Z,18.22
2022-09-03T03:11:05.556Z,18.18
2022-09-03T03:13:34.544Z,18.15
2022-09-03T03:16:07.274Z,18.14
2022-09-03T03:18:36.083Z,18.13
2022-09-03T03:21:11.667Z,18.13
2022-09-03T03:23:40.637Z,18.11
2022-09-03T03:26:13.143Z,18.12
2022-09-03T03:28:42.283Z,18.09
2022-09-03T03:31:13.583Z,18.08
2022-09-03T03:33:42.909Z,18.07
2022-09-03T03:36:15.367Z,18.03
2022-09-03T03:38:45.639Z,18.01
2022-09-03T03:41:17.107Z,18.01
2022-09-03T03:43:46.324Z,17.99
2022-09-03T03:46:15.806Z,17.98
2022-09-03T03:48:44.200Z,17.98
2022-09-03T03:51:13.920Z,17.97
2022-09-03T03:53:42.440Z,17.96
2022-09-03T03:56:13.658Z,17.97
2022-09-03T03:58:44.025Z,17.97
2022-09-03T04:01:15.294Z,17.96
2022-09-03T04:03:44.935Z,17.94
2022-09-03T04:06:17.576Z,17.91
2022-09-03T04:08:48.471Z,17.88
2022-09-03T04:11:21.303Z,17.90
2022-09-03T04:13:51.414Z,17.89
2022-09-03T04:16:21.989Z,17.87
2022-09-03T04:18:51.049Z,17.88
2022-09-03T04:21:23.841Z,17.84
2022-09-03T04:23:53.950Z,17.83
2022-09-03T04:26:25.287Z,17.80
2022-09-03T04:28:54.236Z,17.78
2022-09-03T04:31:23.135Z,17.77
2022-09-03T04:33:51.324Z,17.76
2022-09-03T04:36:22.882Z,17.74
2022-09-03T04:38:54.280Z,17.73
2022-09-03T04:41:25.806Z,17.72
2022-09-03T04:43:55.644Z,17.72
2022-09-03T04:46:27.073Z,17.68
2022-09-03T04:48:57.953Z,17.67
2022-09-03T04:51:29.986Z,17.64
2022-09-03T04:54:01.236Z,17.65
2022-09-03T04:56:32.085Z,17.65
2022-09-03T04:59:02.805Z,17.63
2022-09-03T05:01:33.472Z,17.63
2022-09-03T05:04:02.988Z,17.60
2022-09-03T05:06:34.201Z,17.60
2022-09-03T05:09:03.098Z,17.57
2022-09-03T05:11:31.608Z,17.56
2022-09-03T05:14:01.819Z,17.57
2022-09-03T05:16:31.341Z,17.56
2022-09-03T05:19:05.941Z,17.56
2022-09-03T05:21:37.135Z,17.59
2022-09-03T05:24:06.619Z,17.57
2022-09-03T05:26:38.741Z,17.58
2022-09-03T05:29:08.878Z,17.56
2022-09-03T05:31:40.092Z,17.68
2022-09-03T05:34:10.058Z,17.74
2022-09-03T05:36:40.261Z,17.79
2022-09-03T05:39:08.868Z,17.84
2022-09-03T05:41:37.214Z,17.86
2022-09-03T05:44:06.008Z,17.78
2022-09-03T05:46:38.039Z,17.86
2022-09-03T05:49:08.240Z,17.87
2022-09-03T05:51:40.078Z,17.90
2022-09-03T05:54:09.530Z,17.90
2022-09-03T05:56:41.231Z,17.90
2022-09-03T05:59:11.758Z,17.90
2022-09-03T06:01:47.815Z,17.91
2022-09-03T06:04:21.150Z,17.89
2022-09-03T06:06:50.961Z,17.89
2022-09-03T06:09:21.188Z,17.92
2022-09-03T06:11:52.523Z,17.91
2022-09-03T06:14:22.058Z,17.92
2022-09-03T06:16:52.762Z,17.92
2022-09-03T06:19:21.501Z,17.90
2022-09-03T06:21:51.312Z,17.96
2022-09-03T06:24:23.288Z,17.91
2022-09-03T06:26:55.225Z,17.91
2022-09-03T06:29:23.811Z,17.92
2022-09-03T06:31:52.356Z,17.95
2022-09-03T06:34:22.581Z,17.95
2022-09-03T06:36:52.801Z,17.99
2022-09-03T06:39:23.345Z,18.00
2022-09-03T06:41:52.119Z,18.01
2022-09-03T06:44:28.008Z,18.03
2022-09-03T06:46:56.509Z,18.04
2022-09-03T06:49:26.185Z,18.05
2022-09-03T06:51:56.008Z,18.06
2022-09-03T06:54:25.228Z,18.09
2022-09-03T06:56:53.617Z,18.13
2022-09-03T06:59:21.937Z,18.14
2022-09-03T07:01:50.346Z,18.18
2022-09-03T07:04:20.358Z,18.20
2022-09-03T07:06:49.384Z,18.23
2022-09-03T07:09:19.265Z,18.30
2022-09-03T07:11:48.727Z,18.28
2022-09-03T07:14:19.390Z,18.31
2022-09-03T07:16:49.667Z,18.33
2022-09-03T07:19:18.725Z,18.33
2022-09-03T07:21:50.221Z,18.37
2022-09-03T07:24:22.269Z,18.40
2022-09-03T07:26:51.323Z,18.34
2022-09-03T07:29:21.548Z,18.36
2022-09-03T07:31:52.942Z,18.34
2022-09-03T07:34:24.310Z,18.37
2022-09-03T07:36:54.278Z,18.39
2022-09-03T07:39:24.146Z,18.43
2022-09-03T07:41:52.897Z,18.46
2022-09-03T07:44:22.810Z,18.49
2022-09-03T07:46:52.058Z,18.46
2022-09-03T07:49:22.481Z,18.50
2022-09-03T07:51:53.942Z,18.56
2022-09-03T07:54:27.561Z,18.60
2022-09-03T07:56:56.863Z,18.66
2022-09-03T07:59:26.786Z,18.71
2022-09-03T08:01:56.188Z,18.74
2022-09-03T08:04:24.651Z,18.77
2022-09-03T08:06:55.709Z,18.86
2022-09-03T08:09:26.086Z,18.90
2022-09-03T08:11:55.272Z,18.98
2022-09-03T08:14:23.924Z,19.02
2022-09-03T08:16:52.293Z,19.04
2022-09-03T08:19:20.917Z,19.07
2022-09-03T08:21:49.365Z,19.10
2022-09-03T08:24:21.402Z,19.19
2022-09-03T08:26:52.573Z,19.26
2022-09-03T08:29:23.180Z,19.30
2022-09-03T08:31:52.552Z,19.30
2022-09-03T08:34:22.842Z,19.31
2022-09-03T08:36:52.627Z,19.40
2022-09-03T08:39:22.174Z,19.58
2022-09-03T08:42:22.147Z,19.64
2022-09-03T08:44:54.100Z,19.77
2022-09-03T08:47:27.321Z,19.76
2022-09-03T08:50:01.615Z,19.84
2022-09-03T08:52:39.409Z,19.79
2022-09-03T08:55:22.012Z,19.84
2022-09-03T08:57:58.013Z,19.95
2022-09-03T09:00:30.948Z,19.98
2022-09-03T09:03:27.215Z,20.11
2022-09-03T09:06:05.286Z,20.12
2022-09-03T09:08:42.269Z,20.09
2022-09-03T09:11:22.750Z,20.15
2022-09-03T09:14:04.802Z,20.24
2022-09-03T09:16:41.831Z,20.32
2022-09-03T09:19:27.006Z,20.34
2022-09-03T09:22:00.890Z,20.47
2022-09-03T09:24:39.150Z,20.38
2022-09-03T09:27:10.772Z,20.43
2022-09-03T09:29:43.529Z,20.44
2022-09-03T09:32:14.564Z,20.44
2022-09-03T09:34:42.972Z,20.44
2022-09-03T09:37:14.488Z,20.47
2022-09-03T09:39:56.110Z,20.56
2022-09-03T09:42:25.476Z,20.57
2022-09-03T09:44:55.351Z,20.61
2022-09-03T09:47:28.715Z,20.64
2022-09-03T09:49:59.709Z,20.72
2022-09-03T09:52:31.719Z,20.74
2022-09-03T09:55:10.097Z,20.89
2022-09-03T09:57:40.339Z,20.90
2022-09-03T10:00:13.460Z,20.92
2022-09-03T10:02:48.814Z,21.01
2022-09-03T10:05:23.092Z,21.08
2022-09-03T10:07:59.330Z,21.12
2022-09-03T10:10:32.856Z,21.16
2022-09-03T10:13:09.277Z,21.21
2022-09-03T10:15:46.473Z,21.24
2022-09-03T10:18:28.426Z,21.22
2022-09-03T10:21:06.238Z,21.28
2022-09-03T10:23:50.212Z,21.28
2022-09-03T10:26:32.127Z,21.35
2022-09-03T10:29:05.819Z,21.27
2022-09-03T10:32:01.604Z,21.29
2022-09-03T10:34:38.712Z,21.32
2022-09-03T10:37:21.062Z,21.45
2022-09-03T10:40:04.526Z,21.43
2022-09-03T10:42:45.638Z,21.54
2022-09-03T10:45:24.894Z,21.54
2022-09-03T10:48:17.578Z,21.54
2022-09-03T10:50:50.644Z,21.59
2022-09-03T10:53:44.736Z,21.64
2022-09-03T10:56:23.509Z,21.68
2022-09-03T10:59:11.918Z,21.69
2022-09-03T11:01:53.944Z,21.74
2022-09-03T11:04:37.680Z,21.79
2022-09-03T11:07:09.910Z,21.81
2022-09-03T11:09:43.104Z,21.90
2022-09-03T11:12:22.310Z,21.99
2022-09-03T11:14:56.078Z,22.02
2022-09-03T11:17:32.127Z,21.99
2022-09-03T11:20:13.426Z,21.96
2022-09-03T11:22:44.286Z,21.93
2022-09-03T11:25:16.728Z,21.95
2022-09-03T11:27:58.869Z,21.99
2022-09-03T11:30:50.297Z,22.06
2022-09-03T11:33:23.050Z,22.13
2022-09-03T11:36:00.738Z,22.13
2022-09-03T11:38:31.974Z,22.16
2022-09-03T11:41:05.449Z,22.24
2022-09-03T11:43:35.740Z,22.21
2022-09-03T11:46:11.890Z,22.24
2022-09-03T11:48:44.844Z,22.27
2022-09-03T11:51:33.258Z,22.26
2022-09-03T11:54:04.155Z,22.26
2022-09-03T11:56:34.454Z,22.26
2022-09-03T11:59:19.734Z,22.25
2022-09-03T12:01:53.856Z,22.25
2022-09-03T12:04:28.338Z,22.27
2022-09-03T12:07:07.581Z,22.21
2022-09-03T12:09:58.917Z,22.22
2022-09-03T12:12:56.547Z,22.19
2022-09-03T12:15:56.935Z,22.19
2022-09-03T12:18:28.058Z,22.19
2022-09-03T12:21:05.376Z,22.14
2022-09-03T12:23:42.624Z,22.06
2022-09-03T12:26:14.875Z,21.99
2022-09-03T12:28:47.897Z,21.95
2022-09-03T12:31:22.751Z,21.95
2022-09-03T12:33:54.610Z,21.90
2022-09-03T12:36:24.367Z,21.87
2022-09-03T12:39:11.565Z,21.80
2022-09-03T12:41:56.994Z,21.77
2022-09-03T12:44:31.310Z,21.67
2022-09-03T12:49:58.789Z,21.34
2022-09-03T12:52:31.245Z,21.18
2022-09-03T12:55:06.294Z,21.04
2022-09-03T12:57:40.135Z,20.74
2022-09-03T13:00:11.635Z,20.48
2022-09-03T13:02:47.995Z,20.27
2022-09-03T13:05:21.194Z,20.15
2022-09-03T13:07:53.951Z,20.00
2022-09-03T13:10:30.078Z,19.85
2022-09-03T13:13:02.805Z,19.70
2022-09-03T13:15:32.152Z,19.59
2022-09-03T13:18:20.704Z,19.48
2022-09-03T13:21:12.882Z,19.38
2022-09-03T13:24:16.660Z,19.37
2022-09-03T13:26:59.077Z,19.38
2022-09-03T13:29:43.675Z,19.43
2022-09-03T13:32:30.322Z,19.49
2022-09-03T13:35:07.048Z,19.58
2022-09-03T13:37:40.970Z,19.60
2022-09-03T13:40:19.937Z,19.49
2022-09-03T13:42:55.774Z,19.38
2022-09-03T13:45:38.610Z,19.37
2022-09-03T13:48:32.504Z,19.45
2022-09-03T13:51:09.475Z,19.82
2022-09-03T13:53:48.696Z,20.20
2022-09-03T13:56:35.630Z,20.49
2022-09-03T13:59:15.882Z,20.53
2022-09-03T14:02:13.676Z,20.52
2022-09-03T14:04:57.096Z,20.54
2022-09-03T14:07:41.661Z,20.46
2022-09-03T14:10:25.091Z,20.30
2022-09-03T14:13:08.846Z,20.24
2022-09-03T14:15:48.424Z,20.12
2022-09-03T14:18:38.238Z,20.02
2022-09-03T14:21:12.570Z,20.03
2022-09-03T14:23:48.092Z,20.20
2022-09-03T14:26:38.210Z,20.33
2022-09-03T14:29:17.434Z,20.40
2022-09-03T14:32:20.508Z,20.41
2022-09-03T14:35:11.192Z,20.39
2022-09-03T14:38:11.134Z,20.35
2022-09-03T14:40:45.248Z,20.39
2022-09-03T14:43:43.312Z,20.33
2022-09-03T14:46:26.916Z,20.28
2022-09-03T14:49:11.927Z,20.31
2022-09-03T14:51:54.392Z,20.28
2022-09-03T14:54:43.642Z,20.23
2022-09-03T14:57:45.400Z,20.17
2022-09-03T15:00:18.402Z,20.19
2022-09-03T15:03:23.563Z,20.14
2022-09-03T15:06:16.238Z,20.20
2022-09-03T15:09:06.346Z,20.23
2022-09-03T15:11:48.384Z,20.33
2022-09-03T15:14:27.986Z,20.35
2022-09-03T15:17:02.515Z,20.46
2022-09-03T15:20:04.521Z,20.61
2022-09-03T15:22:54.031Z,20.76
2022-09-03T15:25:44.830Z,20.91
2022-09-03T15:28:19.923Z,21.17
2022-09-03T15:30:58.886Z,21.50
2022-09-03T15:33:37.020Z,21.76
2022-09-03T15:36:19.560Z,21.91
2022-09-03T15:38:56.585Z,22.10
2022-09-03T15:41:41.215Z,22.15
2022-09-03T15:44:19.264Z,22.13
2022-09-03T15:47:00.475Z,22.22
2022-09-03T15:49:45.682Z,22.46
2022-09-03T15:52:31.473Z,22.69
2022-09-03T15:55:10.287Z,22.96
2022-09-03T15:57:47.629Z,23.07
2022-09-03T16:00:21.248Z,23.18
2022-09-03T16:03:00.254Z,23.25
2022-09-03T16:05:40.253Z,23.33
2022-09-03T16:08:20.096Z,23.31
2022-09-03T16:11:01.696Z,23.32
2022-09-03T16:13:54.540Z,23.29
2022-09-03T16:16:27.964Z,23.25
2022-09-03T16:19:07.065Z,23.20
2022-09-03T16:21:44.628Z,23.10
2022-09-03T16:24:20.169Z,23.04
2022-09-03T16:26:56.646Z,22.94
2022-09-03T16:29:31.014Z,22.91
2022-09-03T16:32:26.950Z,22.89
2022-09-03T16:35:23.604Z,22.87
2022-09-03T16:40:43.648Z,22.85
2022-09-03T16:43:40.699Z,22.87
2022-09-03T16:46:25.953Z,22.99
2022-09-03T16:49:21.901Z,23.05
2022-09-03T16:51:57.276Z,23.12
2022-09-03T16:54:50.212Z,23.24
2022-09-03T16:57:40.055Z,23.35
2022-09-03T17:00:14.727Z,23.49
2022-09-03T17:03:26.051Z,23.65
2022-09-03T17:06:43.486Z,23.78
2022-09-03T17:09:28.902Z,23.85
2022-09-03T17:12:08.538Z,23.91
2022-09-03T17:15:12.439Z,23.90
2022-09-03T17:17:59.050Z,23.84
2022-09-03T17:20:49.364Z,23.74
2022-09-03T17:23:43.042Z,23.66
2022-09-03T17:26:14.180Z,23.58
2022-09-03T17:29:02.088Z,23.57
2022-09-03T17:31:44.347Z,23.49
2022-09-03T17:34:29.189Z,23.44
2022-09-03T17:37:02.491Z,23.35
2022-09-03T17:40:05.130Z,23.31
2022-09-03T17:42:49.372Z,23.25
2022-09-03T17:45:28.950Z,23.16
2022-09-03T17:48:19.404Z,23.08
2022-09-03T17:50:55.388Z,23.02
2022-09-03T17:53:35.944Z,22.94
2022-09-03T17:56:09.790Z,22.85
2022-09-03T17:58:43.127Z,22.78
2022-09-03T18:01:20.355Z,22.78
2022-09-03T18:03:54.815Z,22.72
2022-09-03T18:06:33.203Z,22.62
2022-09-03T18:09:07.643Z,22.60
2022-09-03T18:11:40.359Z,22.55
2022-09-03T18:14:22.326Z,22.46
2022-09-03T18:17:00.990Z,22.41
2022-09-03T18:19:54.081Z,22.35
2022-09-03T18:22:48.229Z,22.27
2022-09-03T18:25:35.074Z,22.19
2022-09-03T18:28:26.319Z,22.12
2022-09-03T18:31:12.122Z,22.04
2022-09-03T18:33:58.398Z,21.97
2022-09-03T18:36:44.766Z,21.91
2022-09-03T18:39:46.201Z,21.85
2022-09-03T18:42:40.449Z,21.80
2022-09-03T18:46:05.555Z,21.73
2022-09-03T18:48:51.899Z,21.65
2022-09-03T18:51:46.801Z,21.62
2022-09-03T18:55:07.288Z,21.58
2022-09-03T18:58:04.367Z,21.54
2022-09-03T19:00:55.959Z,21.48
2022-09-03T19:04:08.058Z,21.44
2022-09-03T19:07:03.964Z,21.46
2022-09-03T19:10:03.862Z,21.42
2022-09-03T19:13:06.296Z,21.36
2022-09-03T19:15:59.796Z,21.31
2022-09-03T19:19:12.010Z,21.25
2022-09-03T19:22:06.497Z,21.20
2022-09-03T19:24:53.840Z,21.15
2022-09-03T19:27:56.939Z,21.08
2022-09-03T19:30:53.155Z,21.04
2022-09-03T19:33:51.953Z,21.01
2022-09-03T19:36:52.199Z,20.99
2022-09-03T19:39:59.902Z,20.96
2022-09-03T19:43:03.355Z,20.97
2022-09-03T19:46:04.052Z,20.90
2022-09-03T19:49:06.891Z,20.86
2022-09-03T19:51:58.629Z,20.80
2022-09-03T19:54:46.105Z,20.73
2022-09-03T19:57:35.938Z,20.67
2022-09-03T20:00:32.492Z,20.64
2022-09-03T20:03:21.410Z,20.60
2022-09-03T20:06:11.272Z,20.57
2022-09-03T20:08:58.055Z,20.49
2022-09-03T20:11:29.745Z,20.45
2022-09-03T20:14:15.825Z,20.40
2022-09-03T20:17:07.212Z,20.33
2022-09-03T20:19:52.235Z,20.33
2022-09-03T20:22:32.254Z,20.31
2022-09-03T20:25:23.262Z,20.28
2022-09-03T20:28:04.928Z,20.23
2022-09-03T20:30:45.946Z,20.21
2022-09-03T20:33:30.366Z,20.14
2022-09-03T20:36:06.531Z,20.11
2022-09-03T20:39:27.323Z,20.08
2022-09-03T20:42:07.823Z,20.02
2022-09-03T20:44:55.652Z,19.96
2022-09-03T20:48:01.071Z,19.92
2022-09-03T20:50:49.555Z,19.90
2022-09-03T20:53:48.982Z,19.85
2022-09-03T20:56:26.359Z,19.83
2022-09-03T20:59:11.855Z,19.79
2022-09-03T21:01:52.805Z,19.77
2022-09-03T21:04:43.723Z,19.74
2022-09-03T21:07:22.116Z,19.70
2022-09-03T21:10:00.421Z,19.67
2022-09-03T21:12:39.485Z,19.64
2022-09-03T21:15:18.090Z,19.60
2022-09-03T21:17:59.179Z,19.59
2022-09-03T21:20:41.881Z,19.59
2022-09-03T21:23:21.994Z,19.56
2022-09-03T21:25:56.948Z,19.53
2022-09-03T21:28:31.291Z,19.50
2022-09-03T21:31:04.351Z,19.46
2022-09-03T21:33:38.586Z,19.44
2022-09-03T21:36:15.036Z,19.43
2022-09-03T21:38:49.263Z,19.42
2022-09-03T21:41:27.208Z,19.43
2022-09-03T21:44:03.889Z,19.37
2022-09-03T21:46:37.418Z,19.34
2022-09-03T21:49:10.946Z,19.33
2022-09-03T21:51:50.082Z,19.31
2022-09-03T21:54:24.639Z,19.29
2022-09-03T21:57:12.281Z,19.27
2022-09-03T22:00:07.306Z,19.24
2022-09-03T22:02:41.398Z,19.21
2022-09-03T22:05:10.116Z,19.19
2022-09-03T22:07:56.287Z,19.10
2022-09-03T22:10:31.862Z,18.96
2022-09-03T22:13:14.808Z,18.83
2022-09-03T22:15:48.091Z,18.75
2022-09-03T22:18:28.753Z,18.78
2022-09-03T22:21:12.622Z,18.80
2022-09-03T22:23:56.352Z,18.79
2022-09-03T22:26:45.036Z,18.68
2022-09-03T22:29:28.894Z,18.61
2022-09-03T22:32:06.158Z,18.54
2022-09-03T22:35:07.391Z,18.50
2022-09-03T22:37:55.510Z,18.50
2022-09-03T22:40:35.111Z,18.55
2022-09-03T22:43:21.751Z,18.66
2022-09-03T22:46:08.588Z,18.52
2022-09-03T22:49:12.259Z,18.44
2022-09-03T22:51:56.673Z,18.34
2022-09-03T22:54:42.210Z,18.25
2022-09-03T22:57:13.814Z,18.27
2022-09-03T22:59:45.653Z,18.32
2022-09-03T23:02:21.973Z,18.34
2022-09-03T23:04:58.561Z,18.36
2022-09-03T23:07:36.216Z,18.33
2022-09-03T23:10:10.120Z,18.34
2022-09-03T23:12:46.168Z,18.33
2022-09-03T23:15:20.729Z,18.32
2022-09-03T23:18:01.791Z,18.31
2022-09-03T23:20:31.477Z,18.25
2022-09-03T23:23:10.067Z,18.24
2022-09-03T23:25:43.172Z,18.21
2022-09-03T23:28:24.219Z,18.21
2022-09-03T23:30:52.752Z,18.19
2022-09-03T23:33:21.200Z,18.17
2022-09-03T23:35:55.367Z,18.13
2022-09-03T23:38:38.324Z,18.12
2022-09-03T23:41:12.823Z,18.07
2022-09-03T23:44:11.997Z,18.07
2022-09-03T23:46:56.913Z,18.10
2022-09-03T23:49:39.470Z,18.07
2022-09-03T23:52:37.271Z,18.00
2022-09-03T23:55:20.919Z,17.84
2022-09-03T23:58:02.356Z,17.81
